Rio Rancho, NM

4:36 PM MDT on May 24, 2015 (GMT -0600)
Santa Fe Municipal | | Change Station
CLOSE
Current Station
Airport
Location: Santa Fe,
Elevation: 6345 ft
Nearby Weather Stations

Elev 6345 ft 35.62 °N, 106.09 °W | Updated 43 minutes ago

Mostly Cloudy
Mostly Cloudy
57 °F
Feels Like 57 °F
N
12
Wind Variable Wind from SW

Today
High -- | Low -- °F
--% Chance of Precip.
Yesterday
High -- | Low -- °F
Precip. -- in
5:56 AM 8:10 PM
Waxing Crescent, 43% visible
Pressure 29.79 in
Visibility 10.0 miles
Clouds Mostly Cloudy 7000 ft
Overcast 9000 ft
Dew Point 35 °F
Humidity 44%
Rainfall 0.00 in
Snow Depth Not available.
UV 2 out of 12
Pollen 4.60 out of 12
Air Quality Not available.
Flu Activity Local Activity
METAR KSAF 242153Z 22010KT 10SM BKN070 OVC090 14/02 A2996 RMK AO2 PK WND 23026/2122 SLP087 T01390017

More Conditions Fewer Conditions

Pressure 29.79 in
Visibility 10.0 miles
Clouds Mostly Cloudy 7000 ft
Overcast 9000 ft
Dew Point 35 °F
Humidity 44%
Rainfall 0.00 in
Snow Depth Not available.
UV 2 out of 12
Pollen 4.60 out of 12
Air Quality Not available.
Flu Activity Local Activity
METAR KSAF 242153Z 22010KT 10SM BKN070 OVC090 14/02 A2996 RMK AO2 PK WND 23026/2122 SLP087 T01390017

More Conditions Fewer Conditions

Nowcast | as of 3:14 PM MDT on May 24, 2015

Scattered light showers and occasionally a short lived isolated thunderstorm or two will move to the east and southeast at 15 to 20 mph across locations near and especially southeast of a line from Capulin to Quemado Lake through 530 PM MDT. Up to a tenth of an inch of rain is possible with the stronger showers and thunderstorms. Brief and sudden wind gusts up to 40 mph along with a lightning strike or two are also possible with the stronger showers and any thunderstorm.

×

10-Day Weather Forecast

Almanac

Astronomy

May. 24, 2015 Rise Set
Actual Time
Civil Twilight
Nautical Twilight
Astronomical Twilight
Moon
Length of Visible Light
Length of Day
Tomorrow will be .
, % of the Moon is Illuminated

Today's Extremes

State Highs State Lows

Community

WunderPhotos

Upload Photos

1,823,885 photos uploaded!

WunderBlogs® & News

Nearby

Air Quality

  Air Quality AQ Index Pollutant
Not available.

Snow Depth

Station Depth Elevation

Earthquake Activity

City Distance Mag. Time & Date
Minimum magnitude displayed is 2.5.

Coastal Water Temperatures

Place Temperature

Stations

Nearby Weather Stations

Station Location Temp. Windchill Dew Point Humidity Wind Precip. Elev Updated Type